sensor_id;sensor_type;location;lat;lon;timestamp;pressure;altitude;pressure_sealevel;temperature;humidity
11888;BME280;6003;42.756;23.130;2023-02-22T00:01:41;154628.13;;;8.62;53.73
11888;BME280;6003;42.756;23.130;2023-02-22T00:04:16;154613.63;;;8.56;54.07
11888;BME280;6003;42.756;23.130;2023-02-22T00:06:46;154608.31;;;8.54;54.33
11888;BME280;6003;42.756;23.130;2023-02-22T00:09:13;154597.78;;;8.50;54.17
11888;BME280;6003;42.756;23.130;2023-02-22T00:11:45;154600.41;;;8.51;54.04
11888;BME280;6003;42.756;23.130;2023-02-22T00:14:12;154592.50;;;8.48;53.40
11888;BME280;6003;42.756;23.130;2023-02-22T00:16:39;154584.56;;;8.45;54.19
11888;BME280;6003;42.756;23.130;2023-02-22T00:19:06;154587.19;;;8.46;54.04
11888;BME280;6003;42.756;23.130;2023-02-22T00:21:34;154592.50;;;8.48;54.37
11888;BME280;6003;42.756;23.130;2023-02-22T00:24:01;154584.56;;;8.45;53.69
11888;BME280;6003;42.756;23.130;2023-02-22T00:26:41;154574.03;;;8.41;54.92
11888;BME280;6003;42.756;23.130;2023-02-22T00:29:11;154575.34;;;8.41;55.17
11888;BME280;6003;42.756;23.130;2023-02-22T00:31:38;154585.88;;;8.45;54.58
11888;BME280;6003;42.756;23.130;2023-02-22T00:34:04;154584.56;;;8.45;54.67
11888;BME280;6003;42.756;23.130;2023-02-22T00:36:31;154575.34;;;8.41;54.77
11888;BME280;6003;42.756;23.130;2023-02-22T00:38:59;154585.88;;;8.45;54.01
11888;BME280;6003;42.756;23.130;2023-02-22T00:41:26;154593.81;;;8.48;54.15
11888;BME280;6003;42.756;23.130;2023-02-22T00:43:53;154570.06;;;8.39;54.25
11888;BME280;6003;42.756;23.130;2023-02-22T00:46:20;154577.97;;;8.42;53.84
11888;BME280;6003;42.756;23.130;2023-02-22T00:48:46;154579.28;;;8.43;54.18
11888;BME280;6003;42.756;23.130;2023-02-22T00:51:13;154568.75;;;8.39;55.05
11888;BME280;6003;42.756;23.130;2023-02-22T00:53:40;154581.97;;;8.44;54.73
11888;BME280;6003;42.756;23.130;2023-02-22T00:56:08;154580.66;;;8.43;53.75
11888;BME280;6003;42.756;23.130;2023-02-22T00:58:35;154567.38;;;8.38;53.82
11888;BME280;6003;42.756;23.130;2023-02-22T01:01:02;154579.28;;;8.43;54.73
11888;BME280;6003;42.756;23.130;2023-02-22T01:03:30;154580.66;;;8.43;54.67
11888;BME280;6003;42.756;23.130;2023-02-22T01:05:56;154572.72;;;8.40;54.29
11888;BME280;6003;42.756;23.130;2023-02-22T01:08:23;154563.41;;;8.36;54.53
11888;BME280;6003;42.756;23.130;2023-02-22T01:10:50;154543.66;;;8.29;54.77
11888;BME280;6003;42.756;23.130;2023-02-22T01:13:19;154525.16;;;8.22;55.37
11888;BME280;6003;42.756;23.130;2023-02-22T01:15:47;154511.94;;;8.17;55.41
11888;BME280;6003;42.756;23.130;2023-02-22T01:18:14;154535.75;;;8.26;54.70
11888;BME280;6003;42.756;23.130;2023-02-22T01:20:41;154538.34;;;8.27;54.83
11888;BME280;6003;42.756;23.130;2023-02-22T01:23:13;154538.34;;;8.27;55.24
11888;BME280;6003;42.756;23.130;2023-02-22T01:25:41;154540.97;;;8.28;55.32
11888;BME280;6003;42.756;23.130;2023-02-22T01:28:09;154540.97;;;8.28;54.85
11888;BME280;6003;42.756;23.130;2023-02-22T01:30:39;154552.88;;;8.32;54.77
11888;BME280;6003;42.756;23.130;2023-02-22T01:33:07;154593.81;;;8.48;54.19
11888;BME280;6003;42.756;23.130;2023-02-22T01:35:35;154609.63;;;8.54;54.24
11888;BME280;6003;42.756;23.130;2023-02-22T01:38:03;154626.81;;;8.61;53.47
11888;BME280;6003;42.756;23.130;2023-02-22T01:40:31;154630.75;;;8.63;53.88
11888;BME280;6003;42.756;23.130;2023-02-22T01:43:00;154622.84;;;8.59;53.39
11888;BME280;6003;42.756;23.130;2023-02-22T01:45:51;154614.94;;;8.56;54.35
11888;BME280;6003;42.756;23.130;2023-02-22T01:48:22;154554.19;;;8.33;55.13
11888;BME280;6003;42.756;23.130;2023-02-22T01:50:53;154476.38;;;8.03;56.51
11888;BME280;6003;42.756;23.130;2023-02-22T01:53:24;154414.34;;;7.79;55.79
11888;BME280;6003;42.756;23.130;2023-02-22T01:55:52;154373.50;;;7.63;55.92
11888;BME280;6003;42.756;23.130;2023-02-22T01:58:22;154336.56;;;7.49;56.72
11888;BME280;6003;42.756;23.130;2023-02-22T02:00:51;154293.06;;;7.32;57.15
11888;BME280;6003;42.756;23.130;2023-02-22T02:03:20;154269.34;;;7.22;57.27
11888;BME280;6003;42.756;23.130;2023-02-22T02:05:49;154253.53;;;7.16;57.35
11888;BME280;6003;42.756;23.130;2023-02-22T02:08:29;154240.34;;;7.11;58.14
11888;BME280;6003;42.756;23.130;2023-02-22T02:10:58;154210.03;;;6.99;57.90
11888;BME280;6003;42.756;23.130;2023-02-22T02:13:27;154179.72;;;6.88;58.52
11888;BME280;6003;42.756;23.130;2023-02-22T02:15:55;154148.06;;;6.75;58.99
11888;BME280;6003;42.756;23.130;2023-02-22T02:18:23;154129.63;;;6.68;59.27
11888;BME280;6003;42.756;23.130;2023-02-22T02:27:40;154067.66;;;6.44;60.04
11888;BME280;6003;42.756;23.130;2023-02-22T02:30:42;154038.72;;;6.33;60.36
11888;BME280;6003;42.756;23.130;2023-02-22T02:33:18;154020.25;;;6.26;61.15
11888;BME280;6003;42.756;23.130;2023-02-22T02:35:56;153986.00;;;6.13;61.12
11888;BME280;6003;42.756;23.130;2023-02-22T02:38:32;153967.59;;;6.05;61.52
11888;BME280;6003;42.756;23.130;2023-02-22T02:41:05;153968.91;;;6.06;61.62
11888;BME280;6003;42.756;23.130;2023-02-22T02:43:39;153962.31;;;6.03;61.96
11888;BME280;6003;42.756;23.130;2023-02-22T02:46:10;153942.59;;;5.96;62.08
11888;BME280;6003;42.756;23.130;2023-02-22T02:48:42;153946.50;;;5.97;62.28
11888;BME280;6003;42.756;23.130;2023-02-22T02:51:11;153964.97;;;6.04;62.07
11888;BME280;6003;42.756;23.130;2023-02-22T02:53:43;153961.00;;;6.03;62.20
11888;BME280;6003;42.756;23.130;2023-02-22T02:56:11;153958.38;;;6.02;62.60
11888;BME280;6003;42.756;23.130;2023-02-22T02:58:44;153983.38;;;6.12;62.60
11888;BME280;6003;42.756;23.130;2023-02-22T03:01:18;153984.69;;;6.12;62.42
11888;BME280;6003;42.756;23.130;2023-02-22T03:04:04;153992.59;;;6.15;61.65
11888;BME280;6003;42.756;23.130;2023-02-22T03:07:02;153976.78;;;6.09;62.52
11888;BME280;6003;42.756;23.130;2023-02-22T03:09:40;153968.91;;;6.06;62.32
11888;BME280;6003;42.756;23.130;2023-02-22T03:12:22;153958.38;;;6.02;62.64
11888;BME280;6003;42.756;23.130;2023-02-22T03:15:03;153967.59;;;6.05;63.07
11888;BME280;6003;42.756;23.130;2023-02-22T03:17:45;153953.09;;;6.00;62.99
11888;BME280;6003;42.756;23.130;2023-02-22T03:20:21;153942.59;;;5.96;63.21
11888;BME280;6003;42.756;23.130;2023-02-22T03:23:09;153903.00;;;5.80;63.63
11888;BME280;6003;42.756;23.130;2023-02-22T03:25:39;153876.69;;;5.70;64.50
11888;BME280;6003;42.756;23.130;2023-02-22T03:28:09;153847.72;;;5.59;65.06
11888;BME280;6003;42.756;23.130;2023-02-22T03:30:41;153841.13;;;5.56;64.63
11888;BME280;6003;42.756;23.130;2023-02-22T03:33:14;153831.94;;;5.53;65.50
11888;BME280;6003;42.756;23.130;2023-02-22T03:35:49;153814.78;;;5.46;66.03
11888;BME280;6003;42.756;23.130;2023-02-22T03:38:23;153810.88;;;5.45;66.56
11888;BME280;6003;42.756;23.130;2023-02-22T03:40:53;153804.28;;;5.42;65.98
11888;BME280;6003;42.756;23.130;2023-02-22T03:43:26;153804.28;;;5.42;66.47
11888;BME280;6003;42.756;23.130;2023-02-22T03:45:56;153795.06;;;5.38;66.90
11888;BME280;6003;42.756;23.130;2023-02-22T03:48:28;153788.50;;;5.36;67.07
11888;BME280;6003;42.756;23.130;2023-02-22T03:50:58;153791.09;;;5.37;67.28
11888;BME280;6003;42.756;23.130;2023-02-22T03:53:29;153793.72;;;5.38;67.29
11888;BME280;6003;42.756;23.130;2023-02-22T03:55:58;153787.19;;;5.35;66.85
11888;BME280;6003;42.756;23.130;2023-02-22T03:58:30;153776.63;;;5.31;67.05
11888;BME280;6003;42.756;23.130;2023-02-22T04:00:57;153774.00;;;5.30;67.46
11888;BME280;6003;42.756;23.130;2023-02-22T04:03:24;153758.22;;;5.24;67.46
11888;BME280;6003;42.756;23.130;2023-02-22T04:05:51;153742.44;;;5.18;67.38
11888;BME280;6003;42.756;23.130;2023-02-22T04:08:20;153742.44;;;5.18;67.76
11888;BME280;6003;42.756;23.130;2023-02-22T04:10:47;153727.97;;;5.12;67.56
11888;BME280;6003;42.756;23.130;2023-02-22T04:13:13;153706.91;;;5.04;67.98
11888;BME280;6003;42.756;23.130;2023-02-22T04:15:41;153695.03;;;5.00;67.87
11888;BME280;6003;42.756;23.130;2023-02-22T04:18:08;153676.63;;;4.92;68.37
11888;BME280;6003;42.756;23.130;2023-02-22T04:20:34;153681.88;;;4.94;68.31
11888;BME280;6003;42.756;23.130;2023-02-22T04:23:01;153681.88;;;4.94;68.39
11888;BME280;6003;42.756;23.130;2023-02-22T04:25:30;153675.28;;;4.92;68.16
11888;BME280;6003;42.756;23.130;2023-02-22T04:27:57;153655.59;;;4.84;68.31
11888;BME280;6003;42.756;23.130;2023-02-22T04:30:24;153649.00;;;4.82;68.23
11888;BME280;6003;42.756;23.130;2023-02-22T04:32:54;153614.78;;;4.68;69.04
11888;BME280;6003;42.756;23.130;2023-02-22T04:35:21;153566.13;;;4.49;69.78
11888;BME280;6003;42.756;23.130;2023-02-22T04:37:48;153556.88;;;4.46;69.63
11888;BME280;6003;42.756;23.130;2023-02-22T04:40:16;153547.69;;;4.42;69.60
11888;BME280;6003;42.756;23.130;2023-02-22T04:42:44;153537.19;;;4.38;69.78
11888;BME280;6003;42.756;23.130;2023-02-22T04:45:11;153516.16;;;4.30;70.25
11888;BME280;6003;42.756;23.130;2023-02-22T04:47:39;153499.06;;;4.23;70.52
11888;BME280;6003;42.756;23.130;2023-02-22T04:50:07;153500.38;;;4.24;71.34
11888;BME280;6003;42.756;23.130;2023-02-22T04:52:34;153470.13;;;4.12;72.43
11888;BME280;6003;42.756;23.130;2023-02-22T04:55:01;153506.97;;;4.26;72.12
11888;BME280;6003;42.756;23.130;2023-02-22T04:57:29;153547.69;;;4.42;72.05
11888;BME280;6003;42.756;23.130;2023-02-22T04:59:57;153545.09;;;4.41;72.50
11888;BME280;6003;42.756;23.130;2023-02-22T05:02:24;153571.38;;;4.51;71.93
11888;BME280;6003;42.756;23.130;2023-02-22T05:04:51;153601.66;;;4.63;71.25
11888;BME280;6003;42.756;23.130;2023-02-22T05:07:18;153617.44;;;4.69;71.37
11888;BME280;6003;42.756;23.130;2023-02-22T05:09:45;153645.03;;;4.80;71.47
11888;BME280;6003;42.756;23.130;2023-02-22T05:12:12;153673.97;;;4.91;71.01
11888;BME280;6003;42.756;23.130;2023-02-22T05:14:39;153700.31;;;5.02;70.48
11888;BME280;6003;42.756;23.130;2023-02-22T05:17:08;153727.97;;;5.12;69.94
11888;BME280;6003;42.756;23.130;2023-02-22T05:19:35;153774.00;;;5.30;69.41
11888;BME280;6003;42.756;23.130;2023-02-22T05:22:03;153737.16;;;5.16;68.89
11888;BME280;6003;42.756;23.130;2023-02-22T05:24:30;153704.25;;;5.03;68.98
11888;BME280;6003;42.756;23.130;2023-02-22T05:26:57;153681.88;;;4.94;69.25
11888;BME280;6003;42.756;23.130;2023-02-22T05:29:23;153673.97;;;4.91;69.45
11888;BME280;6003;42.756;23.130;2023-02-22T05:31:50;153667.41;;;4.89;69.67
11888;BME280;6003;42.756;23.130;2023-02-22T05:34:19;153670.06;;;4.90;69.57
11888;BME280;6003;42.756;23.130;2023-02-22T05:36:46;153663.47;;;4.87;69.81
11888;BME280;6003;42.756;23.130;2023-02-22T05:39:13;153679.25;;;4.93;69.51
11888;BME280;6003;42.756;23.130;2023-02-22T05:41:39;153643.72;;;4.80;69.47
11888;BME280;6003;42.756;23.130;2023-02-22T05:44:06;153668.75;;;4.89;69.35
11888;BME280;6003;42.756;23.130;2023-02-22T05:46:33;153673.97;;;4.91;69.55
11888;BME280;6003;42.756;23.130;2023-02-22T05:49:01;153663.47;;;4.87;69.82
11888;BME280;6003;42.756;23.130;2023-02-22T05:51:29;153676.63;;;4.92;69.70
11888;BME280;6003;42.756;23.130;2023-02-22T05:53:56;153701.63;;;5.02;69.93
11888;BME280;6003;42.756;23.130;2023-02-22T05:56:24;153745.06;;;5.19;70.00
11888;BME280;6003;42.756;23.130;2023-02-22T05:58:51;153787.19;;;5.35;69.77
11888;BME280;6003;42.756;23.130;2023-02-22T06:01:19;153838.53;;;5.55;69.57
11888;BME280;6003;42.756;23.130;2023-02-22T06:03:48;153888.50;;;5.75;69.12
11888;BME280;6003;42.756;23.130;2023-02-22T06:06:16;153937.31;;;5.94;68.85
11888;BME280;6003;42.756;23.130;2023-02-22T06:08:46;153992.59;;;6.15;68.94
11888;BME280;6003;42.756;23.130;2023-02-22T06:11:12;154050.56;;;6.38;68.28
11888;BME280;6003;42.756;23.130;2023-02-22T06:13:39;154108.53;;;6.60;68.63
11888;BME280;6003;42.756;23.130;2023-02-22T06:16:06;154145.44;;;6.74;68.77
11888;BME280;6003;42.756;23.130;2023-02-22T06:18:33;154177.03;;;6.87;67.31
11888;BME280;6003;42.756;23.130;2023-02-22T06:21:01;154132.25;;;6.69;67.51
11888;BME280;6003;42.756;23.130;2023-02-22T06:23:28;154123.03;;;6.66;67.78
11888;BME280;6003;42.756;23.130;2023-02-22T06:25:56;154145.44;;;6.74;67.26
11888;BME280;6003;42.756;23.130;2023-02-22T06:28:23;154190.22;;;6.92;67.03
11888;BME280;6003;42.756;23.130;2023-02-22T06:30:50;154233.75;;;7.09;66.08
11888;BME280;6003;42.756;23.130;2023-02-22T06:33:17;154290.38;;;7.31;65.90
11888;BME280;6003;42.756;23.130;2023-02-22T06:35:44;154358.97;;;7.57;65.58
11888;BME280;6003;42.756;23.130;2023-02-22T06:38:11;154432.84;;;7.86;65.72
11888;BME280;6003;42.756;23.130;2023-02-22T06:40:38;154511.94;;;8.17;64.82
11888;BME280;6003;42.756;23.130;2023-02-22T06:43:06;154591.19;;;8.47;63.85
11888;BME280;6003;42.756;23.130;2023-02-22T06:45:33;154690.16;;;8.86;62.71
11888;BME280;6003;42.756;23.130;2023-02-22T06:47:59;154810.34;;;9.32;64.63
11888;BME280;6003;42.756;23.130;2023-02-22T06:50:28;154844.63;;;9.45;60.69
11888;BME280;6003;42.756;23.130;2023-02-22T06:52:57;154802.38;;;9.29;61.36
11888;BME280;6003;42.756;23.130;2023-02-22T06:55:25;154733.72;;;9.02;61.01
11888;BME280;6003;42.756;23.130;2023-02-22T06:57:52;154696.75;;;8.88;60.14
11888;BME280;6003;42.756;23.130;2023-02-22T07:00:22;154706.00;;;8.92;62.16
11888;BME280;6003;42.756;23.130;2023-02-22T07:02:50;154731.09;;;9.01;61.73
11888;BME280;6003;42.756;23.130;2023-02-22T07:05:18;154746.94;;;9.08;60.85
11888;BME280;6003;42.756;23.130;2023-02-22T07:07:46;154736.38;;;9.03;61.37
11888;BME280;6003;42.756;23.130;2023-02-22T07:10:19;154736.38;;;9.03;60.90
11888;BME280;6003;42.756;23.130;2023-02-22T07:12:47;154731.09;;;9.01;61.47
11888;BME280;6003;42.756;23.130;2023-02-22T07:15:17;154716.56;;;8.96;62.44
11888;BME280;6003;42.756;23.130;2023-02-22T07:17:47;154703.38;;;8.91;61.71
11888;BME280;6003;42.756;23.130;2023-02-22T07:20:14;154725.81;;;8.99;60.87
11888;BME280;6003;42.756;23.130;2023-02-22T07:25:58;154812.94;;;9.33;60.28
11888;BME280;6003;42.756;23.130;2023-02-22T07:28:25;154855.22;;;9.49;61.37
11888;BME280;6003;42.756;23.130;2023-02-22T07:30:52;154910.69;;;9.71;58.97
11888;BME280;6003;42.756;23.130;2023-02-22T07:33:20;154974.13;;;9.96;60.11
11888;BME280;6003;42.756;23.130;2023-02-22T07:35:47;155093.09;;;10.42;60.12
11888;BME280;6003;42.756;23.130;2023-02-22T07:38:17;155205.44;;;10.85;59.87
11888;BME280;6003;42.756;23.130;2023-02-22T07:40:44;155294.03;;;11.19;56.51
11888;BME280;6003;42.756;23.130;2023-02-22T07:43:14;155341.63;;;11.38;55.89
11888;BME280;6003;42.756;23.130;2023-02-22T07:45:41;155398.53;;;11.60;56.18
11888;BME280;6003;42.756;23.130;2023-02-22T07:48:08;155434.19;;;11.73;55.35
11888;BME280;6003;42.756;23.130;2023-02-22T07:50:38;155524.22;;;12.08;57.69
11888;BME280;6003;42.756;23.130;2023-02-22T07:53:07;155639.41;;;12.53;54.75
11888;BME280;6003;42.756;23.130;2023-02-22T07:55:35;155713.53;;;12.81;52.04
11888;BME280;6003;42.756;23.130;2023-02-22T07:58:04;155721.50;;;12.84;52.90
11888;BME280;6003;42.756;23.130;2023-02-22T08:00:33;155749.31;;;12.95;51.99
11888;BME280;6003;42.756;23.130;2023-02-22T08:03:01;155790.34;;;13.11;52.36
11888;BME280;6003;42.756;23.130;2023-02-22T08:05:29;155818.16;;;13.22;52.24
11888;BME280;6003;42.756;23.130;2023-02-22T08:07:58;155868.56;;;13.41;52.08
11888;BME280;6003;42.756;23.130;2023-02-22T08:10:25;155891.09;;;13.50;51.55
11888;BME280;6003;42.756;23.130;2023-02-22T08:12:52;155924.19;;;13.63;52.84
11888;BME280;6003;42.756;23.130;2023-02-22T08:15:22;155944.06;;;13.70;52.77
11888;BME280;6003;42.756;23.130;2023-02-22T08:17:50;155918.88;;;13.61;52.12
11888;BME280;6003;42.756;23.130;2023-02-22T08:20:18;155924.19;;;13.63;52.50
11888;BME280;6003;42.756;23.130;2023-02-22T08:22:44;155916.22;;;13.60;52.62
11888;BME280;6003;42.756;23.130;2023-02-22T08:25:14;155934.81;;;13.67;51.04
11888;BME280;6003;42.756;23.130;2023-02-22T08:27:41;155955.97;;;13.75;51.41
11888;BME280;6003;42.756;23.130;2023-02-22T08:30:12;156001.03;;;13.92;51.75
11888;BME280;6003;42.756;23.130;2023-02-22T08:32:39;156056.72;;;14.14;50.80
11888;BME280;6003;42.756;23.130;2023-02-22T08:35:06;156022.22;;;14.00;51.08
11888;BME280;6003;42.756;23.130;2023-02-22T08:37:33;155995.75;;;13.90;51.94
11888;BME280;6003;42.756;23.130;2023-02-22T08:40:00;156054.06;;;14.13;51.47
11888;BME280;6003;42.756;23.130;2023-02-22T08:42:28;156126.94;;;14.41;51.17
11888;BME280;6003;42.756;23.130;2023-02-22T08:44:55;156162.81;;;14.55;48.57
11888;BME280;6003;42.756;23.130;2023-02-22T08:47:21;156195.97;;;14.68;48.14
11888;BME280;6003;42.756;23.130;2023-02-22T08:49:48;156235.75;;;14.83;46.13
11888;BME280;6003;42.756;23.130;2023-02-22T08:52:15;156254.28;;;14.90;45.67
11888;BME280;6003;42.756;23.130;2023-02-22T08:54:44;156276.81;;;14.99;46.67
11888;BME280;6003;42.756;23.130;2023-02-22T08:57:10;156245.00;;;14.86;45.68
11888;BME280;6003;42.756;23.130;2023-02-22T08:59:39;156260.91;;;14.93;45.10
11888;BME280;6003;42.756;23.130;2023-02-22T09:02:13;156263.59;;;14.94;46.31
11888;BME280;6003;42.756;23.130;2023-02-22T09:04:41;156292.78;;;15.05;46.95
11888;BME280;6003;42.756;23.130;2023-02-22T09:07:08;156319.28;;;15.15;45.73
11888;BME280;6003;42.756;23.130;2023-02-22T09:09:35;156298.06;;;15.07;45.51
11888;BME280;6003;42.756;23.130;2023-02-22T09:12:02;156340.50;;;15.23;45.99
11888;BME280;6003;42.756;23.130;2023-02-22T09:14:29;156319.28;;;15.15;44.86
11888;BME280;6003;42.756;23.130;2023-02-22T09:16:57;156361.75;;;15.31;45.36
11888;BME280;6003;42.756;23.130;2023-02-22T09:19:24;156372.34;;;15.35;46.29
11888;BME280;6003;42.756;23.130;2023-02-22T09:21:52;156377.66;;;15.38;44.48
11888;BME280;6003;42.756;23.130;2023-02-22T09:24:19;156420.13;;;15.54;43.96
11888;BME280;6003;42.756;23.130;2023-02-22T09:26:46;156422.78;;;15.55;43.83
11888;BME280;6003;42.756;23.130;2023-02-22T09:29:17;156425.41;;;15.56;44.26
11888;BME280;6003;42.756;23.130;2023-02-22T09:31:48;156445.31;;;15.64;44.74
11888;BME280;6003;42.756;23.130;2023-02-22T09:34:18;156487.84;;;15.80;43.81
11888;BME280;6003;42.756;23.130;2023-02-22T09:36:48;156528.97;;;15.96;44.05
11888;BME280;6003;42.756;23.130;2023-02-22T09:39:16;156490.50;;;15.81;43.11
11888;BME280;6003;42.756;23.130;2023-02-22T09:41:49;156471.94;;;15.74;43.01
11888;BME280;6003;42.756;23.130;2023-02-22T09:44:24;156494.50;;;15.83;43.59
11888;BME280;6003;42.756;23.130;2023-02-22T09:46:53;156502.44;;;15.86;43.45
11888;BME280;6003;42.756;23.130;2023-02-22T09:49:24;156494.50;;;15.83;44.05
11888;BME280;6003;42.756;23.130;2023-02-22T09:51:59;156489.16;;;15.81;43.62
11888;BME280;6003;42.756;23.130;2023-02-22T09:54:29;156490.50;;;15.81;43.42
11888;BME280;6003;42.756;23.130;2023-02-22T09:57:02;156481.22;;;15.77;42.74
11888;BME280;6003;42.756;23.130;2023-02-22T09:59:34;156505.09;;;15.87;43.37
11888;BME280;6003;42.756;23.130;2023-02-22T10:02:14;156494.50;;;15.83;43.50
11888;BME280;6003;42.756;23.130;2023-02-22T10:04:48;156498.44;;;15.84;43.15
11888;BME280;6003;42.756;23.130;2023-02-22T10:07:22;156518.38;;;15.92;43.48
11888;BME280;6003;42.756;23.130;2023-02-22T10:09:51;156570.13;;;16.12;43.38
11888;BME280;6003;42.756;23.130;2023-02-22T10:12:28;156595.34;;;16.21;42.41
11888;BME280;6003;42.756;23.130;2023-02-22T10:15:20;156587.38;;;16.18;41.42
11888;BME280;6003;42.756;23.130;2023-02-22T10:18:01;156603.31;;;16.24;42.44
11888;BME280;6003;42.756;23.130;2023-02-22T10:20:45;156645.81;;;16.41;42.17
11888;BME280;6003;42.756;23.130;2023-02-22T10:23:19;156664.38;;;16.48;41.62
11888;BME280;6003;42.756;23.130;2023-02-22T10:25:51;156659.09;;;16.46;42.03
11888;BME280;6003;42.756;23.130;2023-02-22T10:28:24;156706.88;;;16.64;40.26
11888;BME280;6003;42.756;23.130;2023-02-22T10:30:57;156725.50;;;16.72;40.72
11888;BME280;6003;42.756;23.130;2023-02-22T10:33:29;156752.06;;;16.82;39.93
11888;BME280;6003;42.756;23.130;2023-02-22T10:35:59;156765.34;;;16.87;40.46
11888;BME280;6003;42.756;23.130;2023-02-22T10:38:27;156736.09;;;16.76;39.93
11888;BME280;6003;42.756;23.130;2023-02-22T10:40:58;156738.78;;;16.77;41.63
11888;BME280;6003;42.756;23.130;2023-02-22T10:43:26;156753.38;;;16.82;41.62
11888;BME280;6003;42.756;23.130;2023-02-22T10:45:55;156753.38;;;16.82;39.59
11888;BME280;6003;42.756;23.130;2023-02-22T10:48:25;156789.25;;;16.96;40.31
11888;BME280;6003;42.756;23.130;2023-02-22T10:51:00;156760.03;;;16.85;39.09
11888;BME280;6003;42.756;23.130;2023-02-22T10:53:28;156760.03;;;16.85;39.00
11888;BME280;6003;42.756;23.130;2023-02-22T10:56:07;156756.06;;;16.83;39.90
11888;BME280;6003;42.756;23.130;2023-02-22T10:58:46;156809.19;;;17.04;40.53
11888;BME280;6003;42.756;23.130;2023-02-22T11:01:23;156807.88;;;17.03;40.68
11888;BME280;6003;42.756;23.130;2023-02-22T11:04:09;156825.13;;;17.10;39.60
11888;BME280;6003;42.756;23.130;2023-02-22T11:06:39;156777.28;;;16.91;39.28
11888;BME280;6003;42.756;23.130;2023-02-22T11:09:11;156799.88;;;17.00;39.66
11888;BME280;6003;42.756;23.130;2023-02-22T11:11:40;156818.47;;;17.07;40.04
11888;BME280;6003;42.756;23.130;2023-02-22T11:14:08;156829.09;;;17.11;39.38
11888;BME280;6003;42.756;23.130;2023-02-22T11:16:38;156802.56;;;17.01;38.92
11888;BME280;6003;42.756;23.130;2023-02-22T11:19:11;156797.22;;;16.99;39.82
11888;BME280;6003;42.756;23.130;2023-02-22T11:21:44;156807.88;;;17.03;38.83
11888;BME280;6003;42.756;23.130;2023-02-22T11:24:13;156806.50;;;17.03;38.63
11888;BME280;6003;42.756;23.130;2023-02-22T11:26:42;156782.63;;;16.94;39.13
11888;BME280;6003;42.756;23.130;2023-02-22T11:29:14;156789.25;;;16.96;38.25
11888;BME280;6003;42.756;23.130;2023-02-22T11:31:45;156817.16;;;17.07;38.64
11888;BME280;6003;42.756;23.130;2023-02-22T11:34:30;156843.69;;;17.17;39.55
11888;BME280;6003;42.756;23.130;2023-02-22T11:37:15;156868.97;;;17.27;39.15
11888;BME280;6003;42.756;23.130;2023-02-22T11:39:43;156817.16;;;17.07;38.31
11888;BME280;6003;42.756;23.130;2023-02-22T11:42:20;156825.13;;;17.10;37.54
11888;BME280;6003;42.756;23.130;2023-02-22T11:44:48;156835.75;;;17.14;38.08
11888;BME280;6003;42.756;23.130;2023-02-22T11:47:15;156830.47;;;17.12;36.59
11888;BME280;6003;42.756;23.130;2023-02-22T11:49:43;156823.81;;;17.09;38.80
11888;BME280;6003;42.756;23.130;2023-02-22T11:52:23;156837.06;;;17.14;38.32
11888;BME280;6003;42.756;23.130;2023-02-22T11:55:14;156866.28;;;17.26;37.41
11888;BME280;6003;42.756;23.130;2023-02-22T11:57:54;156847.72;;;17.19;37.89
11888;BME280;6003;42.756;23.130;2023-02-22T12:00:32;156842.38;;;17.17;38.40
11888;BME280;6003;42.756;23.130;2023-02-22T12:03:21;156851.66;;;17.20;37.56
11888;BME280;6003;42.756;23.130;2023-02-22T12:06:02;156839.75;;;17.16;37.95
11888;BME280;6003;42.756;23.130;2023-02-22T12:08:43;156789.25;;;16.96;38.46
11888;BME280;6003;42.756;23.130;2023-02-22T12:11:14;156778.66;;;16.92;38.95
11888;BME280;6003;42.756;23.130;2023-02-22T12:13:56;156790.56;;;16.97;41.19
11888;BME280;6003;42.756;23.130;2023-02-22T12:16:33;156762.66;;;16.86;39.97
11888;BME280;6003;42.756;23.130;2023-02-22T12:19:13;156778.66;;;16.92;39.51
11888;BME280;6003;42.756;23.130;2023-02-22T12:21:45;156730.75;;;16.74;38.63
11888;BME280;6003;42.756;23.130;2023-02-22T12:24:18;156734.78;;;16.75;37.95
11888;BME280;6003;42.756;23.130;2023-02-22T12:26:48;156746.75;;;16.80;38.11
11888;BME280;6003;42.756;23.130;2023-02-22T12:29:24;156732.09;;;16.74;37.49
11888;BME280;6003;42.756;23.130;2023-02-22T12:31:57;156770.69;;;16.89;38.87
11888;BME280;6003;42.756;23.130;2023-02-22T12:34:30;156728.13;;;16.73;37.27
11888;BME280;6003;42.756;23.130;2023-02-22T12:37:05;156746.75;;;16.80;37.47
11888;BME280;6003;42.756;23.130;2023-02-22T12:39:41;156757.41;;;16.84;37.65
11888;BME280;6003;42.756;23.130;2023-02-22T12:42:17;156729.44;;;16.73;38.08
11888;BME280;6003;42.756;23.130;2023-02-22T12:44:51;156736.09;;;16.76;37.02
11888;BME280;6003;42.756;23.130;2023-02-22T12:47:25;156748.13;;;16.80;38.21
11888;BME280;6003;42.756;23.130;2023-02-22T12:49:58;156713.53;;;16.67;34.38
11888;BME280;6003;42.756;23.130;2023-02-22T12:52:39;156698.91;;;16.61;34.76
11888;BME280;6003;42.756;23.130;2023-02-22T12:55:13;156736.09;;;16.76;35.22
11888;BME280;6003;42.756;23.130;2023-02-22T12:57:48;156732.09;;;16.74;34.39
11888;BME280;6003;42.756;23.130;2023-02-22T13:00:20;156757.41;;;16.84;36.42
11888;BME280;6003;42.756;23.130;2023-02-22T13:02:56;156753.38;;;16.82;35.35
11888;BME280;6003;42.756;23.130;2023-02-22T13:05:24;156696.28;;;16.60;35.76
11888;BME280;6003;42.756;23.130;2023-02-22T13:08:05;156702.88;;;16.63;37.23
11888;BME280;6003;42.756;23.130;2023-02-22T13:10:46;156698.91;;;16.61;37.20
11888;BME280;6003;42.756;23.130;2023-02-22T13:13:21;156714.84;;;16.67;37.26
11888;BME280;6003;42.756;23.130;2023-02-22T13:15:56;156746.75;;;16.80;38.34
11888;BME280;6003;42.756;23.130;2023-02-22T13:18:34;156721.47;;;16.70;37.74
11888;BME280;6003;42.756;23.130;2023-02-22T13:21:13;156717.47;;;16.68;38.02
11888;BME280;6003;42.756;23.130;2023-02-22T13:23:46;156709.50;;;16.65;39.33